Time;durP1;ratioP1;P1;durP2;ratioP2;P2;SDS_P1;SDS_P2;PMS_P1;PMS_P2;Temp;Humidity;BMP_temperature;BMP_pressure;BME280_temperature;BME280_humidity;BME280_pressure;Samples;Min_cycle;Max_cycle;Signal;HPM_P1;HPM_P2
2022/10/25 00:01:25;;;;;;;419.77;45.70;;;18.60;99.90;;;;;;4925291;29;19906;-90
2022/10/25 00:03:53;;;;;;;236.65;35.55;;;18.60;99.90;;;;;;4942915;29;20058;-90
2022/10/25 00:06:19;;;;;;;439.25;46.17;;;18.50;99.90;;;;;;4926058;29;20118;-91
2022/10/25 00:08:46;;;;;;;410.25;37.50;;;18.50;99.90;;;;;;4924943;29;20027;-91
2022/10/25 00:11:26;;;;;;;479.98;47.22;;;18.50;99.90;;;;;;4924914;29;20497;-92
2022/10/25 00:13:56;;;;;;;386.05;40.35;;;18.40;99.90;;;;;;4925114;29;20032;-90
2022/10/25 00:16:27;;;;;;;529.35;49.40;;;18.40;99.90;;;;;;4940414;29;20070;-91
2022/10/25 00:18:54;;;;;;;553.42;47.10;;;18.40;99.90;;;;;;4941165;29;20027;-93
2022/10/25 00:21:21;;;;;;;519.90;48.65;;;18.40;99.90;;;;;;4924758;29;20388;-91
2022/10/25 00:23:49;;;;;;;184.43;39.00;;;18.40;99.90;;;;;;4924976;29;20485;-91
2022/10/25 00:26:15;;;;;;;518.85;53.33;;;18.40;99.90;;;;;;4925051;29;20122;-89
2022/10/25 00:28:43;;;;;;;358.88;45.17;;;18.50;99.90;;;;;;4940813;29;20031;-91
2022/10/25 00:31:12;;;;;;;426.08;47.15;;;18.40;99.90;;;;;;4924440;29;20086;-90
2022/10/25 00:33:40;;;;;;;102.90;30.92;;;18.40;99.90;;;;;;4940073;29;20050;-93
2022/10/25 00:36:19;;;;;;;368.77;43.08;;;18.50;99.90;;;;;;4924416;29;20081;-91
2022/10/25 00:38:47;;;;;;;274.10;46.42;;;18.50;99.90;;;;;;4940255;29;20062;-90
2022/10/25 00:41:17;;;;;;;214.52;41.13;;;18.50;99.90;;;;;;4923390;29;20058;-93
2022/10/25 00:43:47;;;;;;;231.85;40.92;;;18.40;99.90;;;;;;4924340;29;20027;-90
2022/10/25 00:46:29;;;;;;;271.73;39.75;;;18.50;99.90;;;;;;4939957;29;20031;-89
2022/10/25 00:49:10;;;;;;;348.65;43.00;;;18.40;99.90;;;;;;4924374;29;20398;-93
2022/10/25 00:51:58;;;;;;;150.60;30.15;;;18.40;99.90;;;;;;4924145;29;20073;-92
2022/10/25 00:54:36;;;;;;;224.50;38.90;;;18.40;99.90;;;;;;4924123;29;20481;-91
2022/10/25 00:57:15;;;;;;;248.40;42.25;;;18.30;99.90;;;;;;4939962;29;20039;-90
2022/10/25 00:59:44;;;;;;;171.55;32.13;;;18.30;99.90;;;;;;4924307;29;20071;-90
2022/10/25 01:02:11;;;;;;;333.23;43.58;;;18.30;99.90;;;;;;4924010;29;20035;-90
2022/10/25 01:04:38;;;;;;;425.73;52.95;;;18.30;99.90;;;;;;4939664;29;20023;-90
2022/10/25 01:07:05;;;;;;;364.92;48.80;;;18.30;99.90;;;;;;4923984;29;20110;-90
2022/10/25 01:09:35;;;;;;;307.25;45.60;;;18.30;99.90;;;;;;4939551;29;20113;-90
2022/10/25 01:12:01;;;;;;;260.85;44.13;;;18.30;99.90;;;;;;4924488;29;20110;-89
2022/10/25 01:14:30;;;;;;;133.00;36.08;;;18.30;99.90;;;;;;4923941;29;20039;-91
2022/10/25 01:17:22;;;;;;;244.68;43.88;;;18.30;99.90;;;;;;4923622;29;20173;-91
2022/10/25 01:20:21;;;;;;;105.63;32.10;;;18.30;99.90;;;;;;4944472;29;20031;-91
2022/10/25 01:23:33;;;;;;;279.27;49.13;;;18.30;99.90;;;;;;4940263;29;20027;-91
2022/10/25 01:26:28;;;;;;;158.55;40.35;;;18.30;99.90;;;;;;4939465;29;20426;-91
2022/10/25 01:29:16;;;;;;;206.90;45.90;;;18.10;99.90;;;;;;4939413;29;20031;-90
2022/10/25 01:31:50;;;;;;;184.00;42.60;;;18.10;99.90;;;;;;4939274;29;20051;-91
2022/10/25 01:34:38;;;;;;;145.60;41.20;;;18.10;99.90;;;;;;4923760;29;20115;-92
2022/10/25 01:37:36;;;;;;;141.38;38.22;;;18.10;99.90;;;;;;4939203;29;20365;-92
2022/10/25 01:40:23;;;;;;;147.18;39.78;;;18.10;99.90;;;;;;4939229;29;20027;-91
2022/10/25 01:43:13;;;;;;;145.15;42.08;;;18.10;99.90;;;;;;4868109;29;20045;-90
2022/10/25 01:46:16;;;;;;;237.68;46.17;;;18.10;99.90;;;;;;4867536;29;20037;-92
2022/10/25 01:48:50;;;;;;;158.93;40.97;;;18.00;99.90;;;;;;4866608;29;20040;-91
2022/10/25 01:51:20;;;;;;;146.30;38.78;;;18.00;99.90;;;;;;4866290;29;20064;-91
2022/10/25 01:53:51;;;;;;;143.55;40.88;;;18.00;99.90;;;;;;4866345;29;20033;-92
2022/10/25 01:56:40;;;;;;;134.00;37.28;;;18.10;99.90;;;;;;4866273;29;20390;-91
2022/10/25 01:59:21;;;;;;;93.43;30.05;;;18.10;99.90;;;;;;4866187;29;20036;-90
2022/10/25 02:02:04;;;;;;;160.63;38.58;;;18.00;99.90;;;;;;4866583;29;20062;-93
2022/10/25 02:04:57;;;;;;;187.65;39.05;;;18.00;99.90;;;;;;4866474;29;20509;-92
2022/10/25 02:08:03;;;;;;;269.83;45.17;;;18.00;99.90;;;;;;4866799;29;20127;-92
2022/10/25 02:11:02;;;;;;;184.40;38.05;;;17.90;99.90;;;;;;4811796;29;20129;-91
2022/10/25 02:13:54;;;;;;;219.60;41.95;;;17.80;99.90;;;;;;4816689;29;20057;-91
2022/10/25 02:16:25;;;;;;;326.80;46.60;;;17.80;99.90;;;;;;4881731;29;20032;-91
2022/10/25 02:19:16;;;;;;;316.00;44.90;;;17.80;99.90;;;;;;4869448;29;20069;-92
2022/10/25 02:21:53;;;;;;;244.85;41.08;;;17.80;99.90;;;;;;4939065;29;20389;-90
2022/10/25 02:24:27;;;;;;;115.38;32.55;;;17.70;99.90;;;;;;4939023;29;20508;-89
2022/10/25 02:26:57;;;;;;;309.45;43.78;;;17.70;99.90;;;;;;4923145;29;20114;-91
2022/10/25 02:29:28;;;;;;;337.70;45.75;;;17.60;99.90;;;;;;4938758;29;20039;-90
2022/10/25 02:31:58;;;;;;;89.90;29.40;;;17.60;99.90;;;;;;4922708;29;20048;-91
2022/10/25 02:34:25;;;;;;;327.30;40.72;;;17.60;99.90;;;;;;4938704;29;20090;-90
2022/10/25 02:36:53;;;;;;;229.80;34.97;;;17.60;99.90;;;;;;4922937;29;20039;-90
2022/10/25 02:39:25;;;;;;;340.42;45.30;;;17.60;99.90;;;;;;4938871;29;20122;-90
2022/10/25 02:42:01;;;;;;;295.58;44.17;;;17.60;99.90;;;;;;4922842;29;20027;-92
2022/10/25 02:44:27;;;;;;;233.65;39.38;;;17.60;99.90;;;;;;4922800;29;20067;-90
2022/10/25 02:46:54;;;;;;;207.18;43.65;;;17.60;99.90;;;;;;4922707;29;20023;-91
2022/10/25 02:49:21;;;;;;;237.60;42.75;;;17.60;99.90;;;;;;4938813;29;20041;-90
2022/10/25 02:51:50;;;;;;;310.70;49.25;;;17.50;99.90;;;;;;4922751;29;20023;-91
2022/10/25 02:54:17;;;;;;;213.80;41.70;;;17.50;99.90;;;;;;4938506;29;20089;-91
2022/10/25 02:56:44;;;;;;;102.40;30.17;;;17.50;99.90;;;;;;4922731;29;20035;-90
2022/10/25 02:59:12;;;;;;;262.58;44.65;;;17.40;99.90;;;;;;4922468;29;20035;-90
2022/10/25 03:01:38;;;;;;;263.58;45.40;;;17.40;99.90;;;;;;4922876;29;20051;-91
2022/10/25 03:04:04;;;;;;;129.75;34.85;;;17.40;99.90;;;;;;4924536;29;20486;-92
2022/10/25 03:06:31;;;;;;;120.43;27.13;;;17.30;99.90;;;;;;4925993;29;20031;-91
2022/10/25 03:08:58;;;;;;;212.70;37.88;;;17.20;99.90;;;;;;4941923;29;20097;-91
2022/10/25 03:11:24;;;;;;;108.43;27.90;;;17.20;99.90;;;;;;4926308;29;20023;-93
2022/10/25 03:13:51;;;;;;;194.23;34.58;;;17.10;99.90;;;;;;4941798;29;20077;-89
2022/10/25 03:16:17;;;;;;;182.35;36.88;;;17.10;99.90;;;;;;4926317;29;20042;-90
2022/10/25 03:18:45;;;;;;;203.38;34.38;;;17.10;99.90;;;;;;4941885;29;20027;-92
2022/10/25 03:21:15;;;;;;;162.75;29.48;;;17.10;99.90;;;;;;4927192;29;20027;-90
2022/10/25 03:23:41;;;;;;;99.80;29.83;;;17.00;99.90;;;;;;4947607;29;20035;-89
2022/10/25 03:26:26;;;;;;;107.15;28.40;;;17.10;99.90;;;;;;4926903;29;20102;-91
2022/10/25 03:28:53;;;;;;;148.13;29.40;;;17.10;99.90;;;;;;4925703;29;20441;-89
2022/10/25 03:31:23;;;;;;;141.20;28.38;;;17.00;99.90;;;;;;4925388;29;20027;-91
2022/10/25 03:33:51;;;;;;;200.88;36.05;;;17.00;99.90;;;;;;4942048;29;20035;-92
2022/10/25 03:36:18;;;;;;;117.40;27.33;;;17.10;99.90;;;;;;4925725;29;20035;-89
2022/10/25 03:38:45;;;;;;;175.10;33.53;;;17.00;99.90;;;;;;4925617;29;20038;-90
2022/10/25 03:41:11;;;;;;;159.52;33.97;;;17.00;99.90;;;;;;4925450;29;20023;-92
2022/10/25 03:43:38;;;;;;;92.10;29.45;;;17.00;99.90;;;;;;4925634;29;20110;-92
2022/10/25 03:46:05;;;;;;;103.90;32.33;;;17.00;99.90;;;;;;4925371;29;20094;-93
2022/10/25 03:48:31;;;;;;;156.55;36.97;;;17.10;99.90;;;;;;4925900;29;20038;-91
2022/10/25 03:50:58;;;;;;;121.88;32.50;;;17.10;99.90;;;;;;4925644;29;20090;-91
2022/10/25 03:53:25;;;;;;;110.80;32.03;;;17.10;99.90;;;;;;4925895;29;20031;-94
2022/10/25 03:55:51;;;;;;;112.65;32.85;;;17.00;99.90;;;;;;4941953;29;20055;-90
2022/10/25 03:58:18;;;;;;;161.40;33.15;;;17.00;99.90;;;;;;4925413;29;20139;-90
2022/10/25 04:00:45;;;;;;;255.32;39.90;;;17.00;99.90;;;;;;4940987;29;20030;-90
2022/10/25 04:03:11;;;;;;;121.22;33.40;;;17.10;99.90;;;;;;4925395;29;20117;-90
2022/10/25 04:05:38;;;;;;;416.17;48.03;;;17.10;99.90;;;;;;4940787;29;20385;-91
2022/10/25 04:08:05;;;;;;;160.85;34.20;;;17.10;99.90;;;;;;4925097;29;20035;-93
2022/10/25 04:10:37;;;;;;;165.75;36.33;;;17.00;99.90;;;;;;4925812;29;20027;-90
2022/10/25 04:13:04;;;;;;;193.63;36.13;;;17.00;99.90;;;;;;4925114;29;20035;-93
2022/10/25 04:15:31;;;;;;;178.57;40.05;;;17.10;99.90;;;;;;4924712;29;20023;-89
2022/10/25 04:17:57;;;;;;;162.82;36.05;;;17.10;99.90;;;;;;4921739;29;20035;-90
2022/10/25 04:20:24;;;;;;;155.85;35.25;;;17.10;99.90;;;;;;4924866;29;20027;-90
2022/10/25 04:22:57;;;;;;;165.85;37.20;;;17.10;99.90;;;;;;4924580;29;20035;-91
2022/10/25 04:25:28;;;;;;;203.85;38.97;;;17.10;99.90;;;;;;4940566;29;20027;-91
2022/10/25 04:27:59;;;;;;;131.52;34.63;;;17.10;99.90;;;;;;4924744;29;20083;-90
2022/10/25 04:30:26;;;;;;;311.45;45.78;;;17.10;99.90;;;;;;4940233;29;20031;-90
2022/10/25 04:32:58;;;;;;;277.65;47.22;;;17.10;99.90;;;;;;4924371;29;20106;-91
2022/10/25 04:35:25;;;;;;;388.20;51.65;;;17.10;99.90;;;;;;4939984;29;20034;-91
2022/10/25 04:37:55;;;;;;;318.45;47.92;;;17.20;99.90;;;;;;4924529;29;20032;-90
2022/10/25 04:40:25;;;;;;;311.30;48.83;;;17.20;99.90;;;;;;4940188;29;20048;-90
2022/10/25 04:42:51;;;;;;;292.70;46.15;;;17.10;99.90;;;;;;4924387;29;20031;-93
2022/10/25 04:45:18;;;;;;;408.52;55.47;;;17.10;99.90;;;;;;4924602;29;20032;-90
2022/10/25 04:47:45;;;;;;;172.70;40.92;;;17.10;99.90;;;;;;4940175;29;20066;-91
2022/10/25 04:50:11;;;;;;;191.38;41.90;;;17.10;99.90;;;;;;4924225;29;20058;-89
2022/10/25 04:52:38;;;;;;;318.70;51.42;;;17.20;99.90;;;;;;4939970;29;20051;-90
2022/10/25 04:55:04;;;;;;;280.58;53.58;;;17.20;99.90;;;;;;4924221;29;20028;-93
2022/10/25 04:57:37;;;;;;;358.38;55.63;;;17.20;99.90;;;;;;4953996;29;20161;-91
2022/10/25 05:00:05;;;;;;;285.85;53.13;;;17.30;99.90;;;;;;4924226;29;20504;-89
2022/10/25 05:02:32;;;;;;;305.45;51.67;;;17.20;99.90;;;;;;4924715;29;20488;-91
2022/10/25 05:05:01;;;;;;;317.00;50.47;;;17.20;99.90;;;;;;4924390;29;20023;-91
2022/10/25 05:07:28;;;;;;;325.85;49.47;;;17.20;99.90;;;;;;4924188;29;20090;-90
2022/10/25 05:09:54;;;;;;;308.20;47.92;;;17.10;99.90;;;;;;4924239;29;20026;-89
2022/10/25 05:12:23;;;;;;;389.08;53.30;;;17.00;99.90;;;;;;4923802;29;20063;-90
2022/10/25 05:14:53;;;;;;;423.92;54.03;;;17.00;99.90;;;;;;4923627;29;20432;-90
2022/10/25 05:17:19;;;;;;;436.20;54.72;;;16.90;99.90;;;;;;4939646;29;20039;-92
2022/10/25 05:19:46;;;;;;;193.52;44.47;;;17.00;99.90;;;;;;4923836;29;20023;-89
2022/10/25 05:22:12;;;;;;;248.95;48.78;;;17.00;99.90;;;;;;4939486;29;20079;-90
2022/10/25 05:24:45;;;;;;;166.95;42.17;;;17.00;99.90;;;;;;4924376;29;20037;-90
2022/10/25 05:27:15;;;;;;;183.23;44.40;;;17.00;99.90;;;;;;4940398;29;20118;-92
2022/10/25 05:29:46;;;;;;;144.23;41.83;;;17.00;99.90;;;;;;4940671;29;20511;-91
2022/10/25 05:32:13;;;;;;;162.38;42.85;;;17.00;99.90;;;;;;4924133;29;20137;-91
2022/10/25 05:34:39;;;;;;;375.27;51.70;;;17.00;99.90;;;;;;4924385;29;20066;-90
2022/10/25 05:37:06;;;;;;;189.23;45.40;;;17.00;99.90;;;;;;4924326;29;20039;-93
2022/10/25 05:39:33;;;;;;;175.27;44.92;;;17.00;99.90;;;;;;4924517;29;20030;-91
2022/10/25 05:42:01;;;;;;;166.05;42.17;;;17.00;99.90;;;;;;4940816;29;20098;-93
2022/10/25 05:44:28;;;;;;;152.52;40.85;;;17.00;99.90;;;;;;4925104;29;20020;-92
2022/10/25 05:46:54;;;;;;;162.75;43.80;;;17.00;99.90;;;;;;4939066;29;20098;-93
2022/10/25 05:49:20;;;;;;;273.95;50.30;;;17.10;99.90;;;;;;4923194;29;20489;-93
2022/10/25 05:51:47;;;;;;;218.10;47.90;;;17.10;99.90;;;;;;4923172;29;20042;-90
2022/10/25 05:54:14;;;;;;;158.48;41.85;;;17.20;99.90;;;;;;4923674;29;20027;-92
2022/10/25 05:56:42;;;;;;;165.32;41.90;;;17.10;99.90;;;;;;4923319;29;20405;-91
2022/10/25 05:59:11;;;;;;;242.75;48.03;;;17.10;99.90;;;;;;4924130;29;20034;-90
2022/10/25 06:01:41;;;;;;;242.77;49.15;;;17.20;99.90;;;;;;4923275;29;20035;-92
2022/10/25 06:04:10;;;;;;;178.15;45.08;;;17.20;99.90;;;;;;4938841;29;20042;-90
2022/10/25 06:06:38;;;;;;;205.82;47.20;;;17.30;99.90;;;;;;4923046;29;20437;-92
2022/10/25 06:09:06;;;;;;;185.60;45.45;;;17.30;99.90;;;;;;4923368;29;20397;-92
2022/10/25 06:11:33;;;;;;;130.63;41.25;;;17.40;99.90;;;;;;4923066;29;20031;-92
2022/10/25 06:14:00;;;;;;;166.35;43.20;;;17.40;99.90;;;;;;4938950;29;20031;-93
2022/10/25 06:16:29;;;;;;;105.85;36.25;;;17.50;99.90;;;;;;4922925;29;20035;-93
2022/10/25 06:18:56;;;;;;;94.82;33.67;;;17.40;99.90;;;;;;4938884;29;20028;-93
2022/10/25 06:21:28;;;;;;;112.93;34.65;;;17.30;99.90;;;;;;4923061;29;20054;-91
2022/10/25 06:23:55;;;;;;;96.32;34.90;;;17.40;99.90;;;;;;4923132;29;20031;-93
2022/10/25 06:26:28;;;;;;;101.50;34.92;;;17.50;99.90;;;;;;4938704;29;20054;-92
2022/10/25 06:29:00;;;;;;;108.38;33.00;;;17.50;99.90;;;;;;4939332;29;20027;-90
2022/10/25 06:31:46;;;;;;;129.82;33.10;;;17.40;99.90;;;;;;4922849;29;20031;-92
2022/10/25 06:34:12;;;;;;;342.83;44.97;;;17.40;99.90;;;;;;4938703;29;20032;-90
2022/10/25 06:36:38;;;;;;;268.00;41.78;;;17.50;99.90;;;;;;4923077;29;20560;-92
2022/10/25 06:39:05;;;;;;;137.77;38.85;;;17.60;99.90;;;;;;4923612;29;20035;-90
2022/10/25 06:41:37;;;;;;;169.15;40.97;;;17.80;99.90;;;;;;4926741;29;20031;-91
2022/10/25 06:44:05;;;;;;;127.78;37.00;;;17.90;99.90;;;;;;4926754;29;20493;-92
2022/10/25 06:46:34;;;;;;;110.07;35.03;;;18.10;99.90;;;;;;4926503;29;20469;-92
2022/10/25 06:49:05;;;;;;;114.43;36.35;;;18.00;99.90;;;;;;4926455;29;20114;-92
2022/10/25 06:51:33;;;;;;;64.60;30.10;;;18.10;99.90;;;;;;4942314;29;20043;-91
2022/10/25 06:54:03;;;;;;;116.57;35.10;;;18.00;99.90;;;;;;4930477;29;20570;-92
2022/10/25 06:56:39;;;;;;;95.28;31.45;;;18.10;99.90;;;;;;4932159;29;20066;-93
2022/10/25 06:59:08;;;;;;;86.20;31.48;;;17.90;99.90;;;;;;4944971;29;20053;-91
2022/10/25 07:01:34;;;;;;;97.50;32.53;;;17.90;99.90;;;;;;4929414;29;20059;-92
2022/10/25 07:04:02;;;;;;;74.03;30.58;;;17.90;99.90;;;;;;4928095;29;20039;-92
2022/10/25 07:06:34;;;;;;;89.82;35.83;;;18.00;99.90;;;;;;4926694;29;20031;-84
2022/10/25 07:09:08;;;;;;;66.03;30.45;;;18.30;99.90;;;;;;4946086;29;20027;-91
2022/10/25 07:11:35;;;;;;;80.93;33.85;;;18.30;99.90;;;;;;4927930;29;20539;-88
2022/10/25 07:14:09;;;;;;;81.00;32.60;;;18.50;99.90;;;;;;4931924;29;20046;-92
2022/10/25 07:16:59;;;;;;;64.80;29.85;;;18.60;99.90;;;;;;4930927;29;20039;-90
2022/10/25 07:19:39;;;;;;;81.25;33.22;;;19.00;99.90;;;;;;5004850;23;20086;-93
2022/10/25 07:27:18;;;;;;;96.03;36.72;;;19.20;99.90;;;;;;4953000;23;20134;-92
2022/10/25 07:29:45;;;;;;;88.90;37.60;;;19.10;99.90;;;;;;4925495;29;20057;-88
2022/10/25 07:33:01;;;;;;;93.35;36.97;;;19.30;99.90;;;;;;4926582;29;20548;-93
2022/10/25 07:44:25;;;;;;;59.50;30.05;;;19.30;99.90;;;;;;4847551;29;20033;-91
2022/10/25 07:47:01;;;;;;;62.10;32.05;;;19.30;99.90;;;;;;4841758;29;20566;-91
2022/10/25 07:49:35;;;;;;;46.22;29.20;;;19.60;99.90;;;;;;4861215;29;20045;-90
2022/10/25 07:52:10;;;;;;;62.95;34.67;;;20.00;99.90;;;;;;4860591;29;20045;-91
2022/10/25 07:54:43;;;;;;;68.30;35.75;;;20.20;99.90;;;;;;4846977;29;20101;-93
2022/10/25 07:57:51;;;;;;;65.93;36.17;;;20.50;99.90;;;;;;4850938;29;20502;-93
2022/10/25 08:00:24;;;;;;;69.88;36.55;;;20.80;99.90;;;;;;4910322;29;20371;-91
2022/10/25 08:03:14;;;;;;;59.97;34.97;;;21.10;99.90;;;;;;4906394;29;20035;-92
2022/10/25 08:05:46;;;;;;;67.35;35.63;;;21.20;99.90;;;;;;4907114;29;20024;-93
2022/10/25 08:08:21;;;;;;;55.65;33.28;;;21.30;99.90;;;;;;4921565;29;20035;-92
2022/10/25 08:11:03;;;;;;;53.03;31.45;;;21.30;99.90;;;;;;4907279;29;20129;-93
2022/10/25 08:14:13;;;;;;;54.22;30.75;;;21.30;99.90;;;;;;4906933;29;20039;-92
2022/10/25 08:17:07;;;;;;;55.78;32.25;;;21.50;99.90;;;;;;4847071;29;20051;-92
2022/10/25 08:19:45;;;;;;;58.28;33.28;;;21.60;99.90;;;;;;4799973;29;20044;-93
2022/10/25 08:22:23;;;;;;;53.13;31.77;;;21.70;99.90;;;;;;4806672;29;20106;-93
2022/10/25 08:24:50;;;;;;;51.28;29.10;;;21.70;99.90;;;;;;4789459;29;20560;-91
2022/10/25 08:27:16;;;;;;;46.53;28.77;;;22.10;99.90;;;;;;4789129;29;20035;-89
2022/10/25 08:29:43;;;;;;;47.40;29.70;;;22.00;99.90;;;;;;4800364;29;20534;-93
2022/10/25 08:35:45;;;;;;;39.28;26.80;;;21.80;99.90;;;;;;4720387;30;20191;-92
2022/10/25 08:38:23;;;;;;;40.45;25.58;;;22.00;99.90;;;;;;4735928;30;20487;-92
2022/10/25 08:45:57;;;;;;;;;;;;;;;;;;;;;
2022/10/25 08:53:11;;;;;;;38.00;25.02;;;22.70;99.90;;;;;;4756444;30;20046;-94
2022/10/25 08:56:03;;;;;;;34.88;24.85;;;22.70;99.90;;;;;;4923394;23;20146;-92
2022/10/25 08:59:36;;;;;;;34.13;25.73;;;22.80;99.90;;;;;;4942067;28;20098;-93
2022/10/25 09:10:19;;;;;;;26.52;23.90;;;23.00;99.90;;;;;;4828357;29;20459;-93
2022/10/25 09:14:03;;;;;;;30.90;24.38;;;23.10;99.90;;;;;;4832185;29;20089;-92
2022/10/25 09:22:39;;;;;;;28.48;24.17;;;23.60;99.90;;;;;;5687416;23;20052;-93
2022/10/25 09:37:12;;;;;;;28.13;24.15;;;23.80;99.90;;;;;;4957912;23;20138;-94
2022/10/25 10:05:57;;;;;;;;;;;;;;;;;;;;;
2022/10/25 10:23:46;;;;;;;25.73;23.00;;;24.40;99.90;;;;;;4946955;29;20051;-90
2022/10/25 10:26:30;;;;;;;26.27;21.33;;;24.40;99.90;;;;;;4935212;29;20031;-90
2022/10/25 10:29:03;;;;;;;25.40;22.77;;;24.60;99.90;;;;;;4942757;29;20027;-92
2022/10/25 10:31:39;;;;;;;26.40;21.90;;;24.60;99.90;;;;;;4926927;29;20058;-93
2022/10/25 10:34:23;;;;;;;23.35;20.85;;;24.60;99.90;;;;;;4942593;29;20416;-93
2022/10/25 10:37:16;;;;;;;33.78;22.23;;;24.50;99.90;;;;;;4926801;29;20075;-92
2022/10/25 10:40:00;;;;;;;31.27;22.63;;;24.50;99.90;;;;;;4926664;29;20035;-93
2022/10/25 10:42:33;;;;;;;27.10;22.10;;;24.50;99.90;;;;;;4927239;29;20031;-93
2022/10/25 10:45:11;;;;;;;24.83;21.27;;;24.80;99.90;;;;;;4926776;29;20031;-92
2022/10/25 10:47:50;;;;;;;24.15;20.98;;;24.90;99.90;;;;;;4924952;29;20027;-91
2022/10/25 10:50:23;;;;;;;28.55;23.92;;;24.70;99.90;;;;;;4913533;29;20031;-91
2022/10/25 10:52:52;;;;;;;28.35;22.52;;;24.80;99.90;;;;;;4924392;29;20047;-93
2022/10/25 10:55:46;;;;;;;27.73;22.85;;;24.70;99.90;;;;;;4918335;29;20031;-92
2022/10/25 10:58:25;;;;;;;23.88;21.58;;;24.70;99.90;;;;;;4919051;29;20035;-94
2022/10/25 11:00:55;;;;;;;28.98;22.88;;;24.90;99.90;;;;;;4902620;29;20032;-92
2022/10/25 11:03:40;;;;;;;25.20;21.58;;;25.00;99.90;;;;;;4900822;29;20184;-92
2022/10/25 11:06:12;;;;;;;24.73;21.85;;;25.10;99.90;;;;;;4919293;29;20033;-92
2022/10/25 11:08:40;;;;;;;26.05;22.25;;;25.10;99.90;;;;;;4909426;29;20043;-92
2022/10/25 11:11:21;;;;;;;25.75;21.90;;;25.20;99.90;;;;;;4928194;29;20118;-93
2022/10/25 11:13:56;;;;;;;29.38;22.48;;;25.30;99.90;;;;;;4919615;29;20489;-92
2022/10/25 11:17:02;;;;;;;24.73;21.80;;;25.30;99.90;;;;;;4913625;29;20066;-92
2022/10/25 11:19:33;;;;;;;24.27;21.67;;;25.30;99.90;;;;;;4904039;29;20032;-93
2022/10/25 11:22:27;;;;;;;23.80;21.05;;;25.40;99.90;;;;;;4892360;29;20104;-94
2022/10/25 11:25:24;;;;;;;32.42;22.92;;;25.50;99.90;;;;;;4905731;29;20036;-91
2022/10/25 11:28:25;;;;;;;25.25;20.60;;;25.30;99.90;;;;;;4906514;29;20035;-92
2022/10/25 11:31:05;;;;;;;23.02;20.25;;;25.10;99.90;;;;;;4906371;29;20039;-92
2022/10/25 11:33:46;;;;;;;23.45;20.98;;;25.30;99.90;;;;;;4890563;29;20054;-93
2022/10/25 11:36:25;;;;;;;24.00;21.65;;;25.40;99.90;;;;;;4905168;29;20079;-91
2022/10/25 11:39:22;;;;;;;22.80;20.58;;;25.50;99.90;;;;;;4905288;29;20028;-91
2022/10/25 11:42:15;;;;;;;25.27;21.20;;;25.60;99.90;;;;;;4891342;29;20037;-92
2022/10/25 11:45:27;;;;;;;25.20;20.90;;;25.70;99.90;;;;;;4921851;29;20032;-93
2022/10/25 11:48:27;;;;;;;23.98;21.35;;;26.00;99.90;;;;;;4892378;29;20036;-93
2022/10/25 11:51:13;;;;;;;25.60;22.35;;;26.00;99.90;;;;;;4920775;29;20056;-91
2022/10/25 11:53:47;;;;;;;25.60;21.35;;;26.10;99.90;;;;;;4897400;29;20053;-93
2022/10/25 11:56:50;;;;;;;24.92;20.88;;;26.10;99.90;;;;;;4851552;29;20044;-92
2022/10/25 11:59:27;;;;;;;23.27;21.25;;;26.10;99.90;;;;;;4897797;29;20086;-92
2022/10/25 12:07:35;;;;;;;24.77;22.15;;;26.00;99.90;;;;;;4939197;29;20066;-93
2022/10/25 12:10:23;;;;;;;25.05;22.38;;;26.10;99.90;;;;;;4907843;29;20039;-94
2022/10/25 12:13:18;;;;;;;24.55;22.08;;;26.10;99.90;;;;;;4935392;29;20024;-92
2022/10/25 12:19:29;;;;;;;28.60;22.83;;;25.80;99.90;;;;;;4830695;29;20070;-92
2022/10/25 12:22:02;;;;;;;26.02;23.27;;;25.70;99.90;;;;;;4831350;29;20038;-92
2022/10/25 12:24:58;;;;;;;26.63;21.80;;;25.80;99.90;;;;;;4832836;29;20089;-93
2022/10/25 12:27:27;;;;;;;30.45;22.73;;;25.90;99.90;;;;;;4845539;29;20042;-93
2022/10/25 12:30:02;;;;;;;29.42;22.58;;;25.80;99.90;;;;;;4830957;29;20121;-92
2022/10/25 12:52:28;;;;;;;23.75;20.25;;;25.30;99.90;;;;;;5134557;23;20086;-93
2022/10/25 13:32:37;;;;;;;21.17;18.85;;;25.20;99.90;;;;;;4999574;23;20051;-94
2022/10/25 13:35:43;;;;;;;22.63;18.98;;;25.10;99.90;;;;;;4944602;28;20484;-92
2022/10/25 13:38:32;;;;;;;20.65;18.70;;;25.10;99.90;;;;;;4894643;23;20059;-94
2022/10/25 13:41:25;;;;;;;21.30;18.83;;;25.10;99.90;;;;;;4927177;29;20135;-93
2022/10/25 13:44:07;;;;;;;21.77;18.80;;;25.10;99.90;;;;;;4926515;29;20027;-93
2022/10/25 13:46:42;;;;;;;21.23;19.08;;;24.90;99.90;;;;;;4894854;28;20098;-93
2022/10/25 13:49:42;;;;;;;21.20;18.98;;;24.80;99.90;;;;;;4920711;29;20119;-93
2022/10/25 13:52:32;;;;;;;20.55;18.48;;;24.80;99.90;;;;;;4906325;29;20039;-93
2022/10/25 13:55:32;;;;;;;20.42;18.50;;;24.80;99.90;;;;;;4922698;29;20484;-93
2022/10/25 14:01:33;;;;;;;20.85;18.63;;;24.80;99.90;;;;;;5222249;23;20058;-91
2022/10/25 14:04:44;;;;;;;20.63;18.50;;;24.80;99.90;;;;;;5290613;23;20103;-94
2022/10/25 14:07:51;;;;;;;22.92;18.52;;;24.70;99.90;;;;;;4950234;29;20061;-93
2022/10/25 14:11:26;;;;;;;20.52;18.08;;;24.70;99.90;;;;;;4917499;29;20051;-93
2022/10/25 14:18:13;;;;;;;20.02;18.25;;;24.50;99.90;;;;;;4860622;29;20054;-92
2022/10/25 14:24:18;;;;;;;20.15;18.25;;;24.50;99.90;;;;;;4736485;30;20403;-92
2022/10/25 16:15:36;;;;;;;26.45;19.52;;;20.10;99.90;;;;;;5586063;23;20051;-92
2022/10/25 16:18:06;;;;;;;23.85;21.40;;;20.00;99.90;;;;;;4944109;28;20496;-93
2022/10/25 16:20:33;;;;;;;27.75;20.90;;;19.80;99.90;;;;;;4944075;28;20039;-93
2022/10/25 16:22:59;;;;;;;23.85;20.83;;;19.70;99.90;;;;;;4943885;28;20033;-92
2022/10/25 16:25:26;;;;;;;26.23;20.30;;;19.70;99.90;;;;;;4944050;28;20026;-93
2022/10/25 16:27:53;;;;;;;25.95;21.92;;;19.60;99.90;;;;;;4943586;28;20373;-93
2022/10/25 16:30:25;;;;;;;26.20;20.15;;;19.50;99.90;;;;;;4943992;28;20027;-92
2022/10/25 16:32:52;;;;;;;28.70;21.08;;;19.40;99.90;;;;;;4943758;28;20086;-92
2022/10/25 16:35:23;;;;;;;28.08;21.85;;;19.30;99.90;;;;;;4943995;28;20023;-91
2022/10/25 16:37:53;;;;;;;30.00;21.95;;;19.30;99.90;;;;;;4959620;28;20498;-92
2022/10/25 16:40:21;;;;;;;28.27;20.40;;;19.20;99.90;;;;;;4943439;28;20031;-90
2022/10/25 16:42:48;;;;;;;26.95;21.38;;;19.10;99.90;;;;;;4943444;28;20113;-93
2022/10/25 16:45:35;;;;;;;22.90;20.45;;;19.00;99.90;;;;;;4943601;28;20050;-92
2022/10/25 16:48:03;;;;;;;30.90;21.17;;;19.00;99.90;;;;;;4943367;28;20030;-93
2022/10/25 16:50:39;;;;;;;24.08;19.55;;;19.00;99.90;;;;;;4943532;28;20074;-92
2022/10/25 16:53:06;;;;;;;32.28;21.45;;;18.90;99.90;;;;;;4960420;28;20109;-93
2022/10/25 16:55:33;;;;;;;33.05;22.42;;;18.90;99.90;;;;;;4942144;29;20198;-92
2022/10/25 16:58:01;;;;;;;33.45;23.23;;;18.90;99.90;;;;;;4941227;29;20500;-93
2022/10/25 17:00:31;;;;;;;35.20;23.70;;;18.80;99.90;;;;;;4924678;29;20023;-91
2022/10/25 17:02:57;;;;;;;39.85;23.23;;;18.80;99.90;;;;;;4939863;29;20036;-93
2022/10/25 17:05:27;;;;;;;51.85;26.92;;;18.80;99.90;;;;;;4940121;29;20031;-92
2022/10/25 17:07:54;;;;;;;54.17;29.30;;;18.70;99.90;;;;;;4940137;29;20042;-91
2022/10/25 17:10:21;;;;;;;49.58;27.50;;;18.80;99.90;;;;;;4940964;29;20031;-92
2022/10/25 17:13:00;;;;;;;56.55;28.33;;;18.70;99.90;;;;;;4941370;29;20031;-92
2022/10/25 17:15:27;;;;;;;73.40;31.33;;;18.70;99.90;;;;;;4939678;29;20071;-91
2022/10/25 17:17:53;;;;;;;55.55;31.42;;;18.60;99.90;;;;;;4923496;29;20043;-92
2022/10/25 17:20:20;;;;;;;61.92;29.52;;;18.50;99.90;;;;;;4939618;29;20122;-91
2022/10/25 17:22:48;;;;;;;51.58;26.13;;;18.50;99.90;;;;;;4938796;29;20027;-92
2022/10/25 17:25:15;;;;;;;49.30;25.98;;;18.40;99.90;;;;;;4939242;29;20090;-92
2022/10/25 17:27:46;;;;;;;41.75;24.95;;;18.40;99.90;;;;;;4939629;29;20034;-92
2022/10/25 17:30:15;;;;;;;42.95;26.38;;;18.40;99.90;;;;;;4940839;29;20167;-92
2022/10/25 17:32:42;;;;;;;44.50;25.52;;;18.30;99.90;;;;;;4941479;29;20023;-91
2022/10/25 17:35:09;;;;;;;45.38;23.88;;;18.20;99.90;;;;;;4941446;29;20465;-93
2022/10/25 17:37:36;;;;;;;40.33;24.10;;;18.20;99.90;;;;;;4941380;29;20485;-92
2022/10/25 17:40:03;;;;;;;40.25;23.67;;;18.10;99.90;;;;;;4943495;29;20035;-93
2022/10/25 17:42:29;;;;;;;40.85;24.05;;;18.10;99.90;;;;;;4939810;29;20027;-92
2022/10/25 17:44:56;;;;;;;41.40;24.45;;;18.10;99.90;;;;;;4939476;29;20054;-93